Hlavní strana
METAR-TAF:

METAR-TAF

Letiště :

Borlänge, Švédsko

zeměpisná šířka: 60-26N, zeměpisná délka: 015-31E, výška: 145 m

Aktuální stav počasí

Zpráva byla vytvořena před 17 minutami, v 20:20 UTC
Jižní vítr 8 kt
Teplota 3°C
Vlhkost vzduchu 93%
Tlak 1001 hPa
Viditelnost 10 km a více

METAR: ESSD 122020Z AUTO 17008KT 9999 FEW017/// BKN030/// 03/02 Q1001

Čas: 21:37 (20:37 UTC)

Předpověď počasí

Zpráva byla vytvořena před 9 hodinami a 7 minutami, v 11:30 UTC
Předpověď platná od 12 v 12 UTC do 12 v 16 UTC
Jihovýchodní vítr 8 kt
Viditelnost: 2200 m
Oblačno až skoro zataženo ve výšce 300 ft
déšť, sníh, kouřmo
Dočasný
od 12 v 12 UTC do 12 v 16 UTC
Viditelnost: 8000 m
Zataženo ve výšce 1000 ft
slabý déšť

TAF: ESSD 121130Z 1212/1216 13008KT 2200 RASN BR BKN003 TEMPO 1212/1216 8000 -RA OVC010

Stav a předpovědi počasí z více než 4 000 letišť (zprávy METAR a TAF).

Červené a žluté tečky na mapě představují dostupné meteorologické stanice.

Když kurzor umístíte na tečku, zobrazí se název stanice.

Pak kliknutím zobrazíte stav a předpověď počasí.

Chcete-li změnit mapu, kliknutím na zelené tlačítko se znaménkem +mapu přiblížíte, kliknutím na zelené tlačítko se znaménkem – mapu oddálíte a kliknutím na zelené šipky přejdete na sousední mapy.


METAR-TAF: